Terminal Aerodrome Forecast
Issued by NWS

Current Version | Previous Version | Text Only | Print | Product List | Glossary On
Versions: 1 2 3 4 5 6 7 8 9 10 11 12 13 14 15 16 17 18 19 20 21 22 23 24 25 26
000
FTUS45 KREV 202300
TAFTRK
TAF
KTRK 202331Z 2100/2124 VRB04KT P6SM VCSH SCT025 BKN035 OVC070
      TEMPO 2100/2104 22008KT -SHRA BKN025
     FM211200 VRB03KT P6SM BKN035 BKN180
     FM211900 30010KT P6SM BKN040 BKN180
      AMD NOT SKED 2102/2112=

USA.gov is the U.S. government's official web portal to all federal, state and local government web resources and services.